createdAt,value
2022-12-05T00:00:53.509Z,13.80
2022-12-05T00:03:31.325Z,13.40
2022-12-05T00:05:53.946Z,12.30
2022-12-05T00:08:16.313Z,10.77
2022-12-05T00:10:39.055Z,10.43
2022-12-05T00:13:01.309Z,12.53
2022-12-05T00:15:23.540Z,11.73
2022-12-05T00:17:46.203Z,13.13
2022-12-05T00:20:09.926Z,11.13
2022-12-05T00:22:32.386Z,13.77
2022-12-05T00:24:54.643Z,10.83
2022-12-05T00:27:16.876Z,12.70
2022-12-05T00:29:39.107Z,11.83
2022-12-05T00:32:01.498Z,11.33
2022-12-05T00:34:23.921Z,10.00
2022-12-05T00:36:46.183Z,11.43
2022-12-05T00:39:10.256Z,10.80
2022-12-05T00:41:32.499Z,11.47
2022-12-05T00:43:55.297Z,12.90
2022-12-05T00:46:18.833Z,10.60
2022-12-05T00:48:41.610Z,9.83
2022-12-05T00:51:10.008Z,12.90
2022-12-05T00:53:32.654Z,11.60
2022-12-05T00:55:55.120Z,12.87
2022-12-05T00:58:17.332Z,9.90
2022-12-05T01:00:40.525Z,9.97
2022-12-05T01:03:02.857Z,10.37
2022-12-05T01:05:25.103Z,11.50
2022-12-05T01:07:47.365Z,11.00
2022-12-05T01:10:09.724Z,9.40
2022-12-05T01:12:32.064Z,10.17
2022-12-05T01:14:54.545Z,11.37
2022-12-05T01:17:19.759Z,11.00
2022-12-05T01:19:42.036Z,12.97
2022-12-05T01:22:04.339Z,12.13
2022-12-05T01:24:27.314Z,12.20
2022-12-05T01:26:50.166Z,12.43
2022-12-05T01:29:13.848Z,11.13
2022-12-05T01:31:37.251Z,12.37
2022-12-05T01:34:00.304Z,10.63
2022-12-05T01:36:23.252Z,8.83
2022-12-05T01:38:45.777Z,9.97
2022-12-05T01:41:09.051Z,11.53
2022-12-05T01:43:31.396Z,10.80
2022-12-05T01:45:53.742Z,10.13
2022-12-05T01:48:18.222Z,11.90
2022-12-05T01:50:40.684Z,9.73
2022-12-05T01:53:04.024Z,10.53
2022-12-05T01:55:27.307Z,9.30
2022-12-05T01:57:50.025Z,9.70
2022-12-05T02:00:14.734Z,10.23
2022-12-05T02:02:37.086Z,10.23
2022-12-05T02:05:07.845Z,9.67
2022-12-05T02:07:30.551Z,12.20
2022-12-05T02:09:52.907Z,11.47
2022-12-05T02:12:15.167Z,11.47
2022-12-05T02:14:54.844Z,10.00
2022-12-05T02:17:20.066Z,9.50
2022-12-05T02:19:51.485Z,9.53
2022-12-05T02:22:32.707Z,11.93
2022-12-05T02:25:13.888Z,11.43
2022-12-05T02:28:08.725Z,12.40
2022-12-05T02:30:36.266Z,10.40
2022-12-05T02:33:09.396Z,10.43
2022-12-05T02:35:38.570Z,11.60
2022-12-05T02:38:03.779Z,11.03
2022-12-05T02:40:55.633Z,9.23
2022-12-05T02:43:21.219Z,11.60
2022-12-05T02:45:48.883Z,9.50
2022-12-05T02:48:12.231Z,9.70
2022-12-05T02:50:36.617Z,10.87
2022-12-05T02:53:00.435Z,9.13
2022-12-05T02:55:23.646Z,10.83
2022-12-05T02:57:46.943Z,11.33
2022-12-05T03:00:09.518Z,10.37
2022-12-05T03:02:33.061Z,8.90
2022-12-05T03:04:58.938Z,10.23
2022-12-05T03:07:21.863Z,13.07
2022-12-05T03:09:49.895Z,9.20
2022-12-05T03:12:23.736Z,11.83
2022-12-05T03:14:57.592Z,10.10
2022-12-05T03:17:23.715Z,10.93
2022-12-05T03:19:45.919Z,11.73
2022-12-05T03:22:10.141Z,11.43
2022-12-05T03:24:34.545Z,11.43
2022-12-05T03:27:24.025Z,11.73
2022-12-05T03:29:46.868Z,9.27
2022-12-05T03:32:10.974Z,10.17
2022-12-05T03:34:38.212Z,12.50
2022-12-05T03:37:04.816Z,10.83
2022-12-05T03:39:30.646Z,11.70
2022-12-05T03:41:58.850Z,11.70
2022-12-05T03:44:34.167Z,10.77
2022-12-05T03:47:02.567Z,12.47
2022-12-05T03:49:26.974Z,11.20
2022-12-05T03:51:52.827Z,11.07
2022-12-05T03:54:24.703Z,10.17
2022-12-05T03:56:51.914Z,11.57
2022-12-05T03:59:32.883Z,9.57
2022-12-05T04:01:56.511Z,12.10
2022-12-05T04:04:22.120Z,11.70
2022-12-05T04:06:46.462Z,8.83
2022-12-05T04:09:16.809Z,10.07
2022-12-05T04:11:43.237Z,10.07
2022-12-05T04:14:07.887Z,11.60
2022-12-05T04:17:05.350Z,9.17
2022-12-05T04:19:58.833Z,12.57
2022-12-05T04:22:22.163Z,12.50
2022-12-05T04:25:03.104Z,12.13
2022-12-05T04:27:50.691Z,11.87
2022-12-05T04:30:15.223Z,13.27
2022-12-05T04:32:57.710Z,12.17
2022-12-05T04:35:25.431Z,12.57
2022-12-05T04:37:50.247Z,11.23
2022-12-05T04:40:19.663Z,12.90
2022-12-05T04:42:43.223Z,11.23
2022-12-05T04:45:08.157Z,11.00
2022-12-05T04:47:35.695Z,9.40
2022-12-05T04:49:58.996Z,11.73
2022-12-05T04:52:22.114Z,10.60
2022-12-05T04:54:49.858Z,12.10
2022-12-05T04:57:18.770Z,11.00
2022-12-05T04:59:41.010Z,10.50
2022-12-05T05:02:10.453Z,9.70
2022-12-05T05:04:37.667Z,12.03
2022-12-05T05:06:59.905Z,10.70
2022-12-05T05:09:22.136Z,10.70
2022-12-05T05:11:44.420Z,9.80
2022-12-05T05:14:06.678Z,9.70
2022-12-05T05:16:30.571Z,9.83
2022-12-05T05:18:53.398Z,9.37
2022-12-05T05:21:20.735Z,12.27
2022-12-05T05:23:43.031Z,11.37
2022-12-05T05:26:05.296Z,11.07
2022-12-05T05:28:27.549Z,12.60
2022-12-05T05:30:49.989Z,9.80
2022-12-05T05:33:12.451Z,12.40
2022-12-05T05:35:37.203Z,9.47
2022-12-05T05:37:59.386Z,11.27
2022-12-05T05:40:21.639Z,10.90
2022-12-05T05:42:47.845Z,10.43
2022-12-05T05:45:10.600Z,10.80
2022-12-05T05:47:32.847Z,11.83
2022-12-05T05:49:55.424Z,9.63
2022-12-05T05:52:17.806Z,9.40
2022-12-05T05:54:40.075Z,8.83
2022-12-05T05:57:02.287Z,10.03
2022-12-05T05:59:24.544Z,11.23
2022-12-05T06:01:47.611Z,11.33
2022-12-05T06:04:10.338Z,11.23
2022-12-05T06:06:32.615Z,11.97
2022-12-05T06:08:55.085Z,11.60
2022-12-05T06:11:28.001Z,11.70
2022-12-05T06:13:50.329Z,9.20
2022-12-05T06:16:13.677Z,10.53
2022-12-05T06:18:36.031Z,12.70
2022-12-05T06:20:58.834Z,10.17
2022-12-05T06:23:21.276Z,12.57
2022-12-05T06:25:48.235Z,12.80
2022-12-05T06:28:10.481Z,11.70
2022-12-05T06:30:32.859Z,11.10
2022-12-05T06:32:55.077Z,12.07
2022-12-05T06:35:17.387Z,10.47
2022-12-05T06:37:39.570Z,11.13
2022-12-05T06:40:01.830Z,11.03
2022-12-05T06:42:24.124Z,11.40
2022-12-05T06:44:46.391Z,11.73
2022-12-05T06:47:08.626Z,12.60
2022-12-05T06:49:37.481Z,13.43
2022-12-05T06:52:00.617Z,14.33
2022-12-05T06:54:22.809Z,11.83
2022-12-05T06:56:45.122Z,13.90
2022-12-05T06:59:07.421Z,13.13
2022-12-05T07:01:38.763Z,15.97
2022-12-05T07:04:01.414Z,12.00
2022-12-05T07:06:23.693Z,13.70
2022-12-05T07:08:46.045Z,13.53
2022-12-05T07:11:09.063Z,14.90
2022-12-05T07:13:31.543Z,14.67
2022-12-05T07:15:53.819Z,13.67
2022-12-05T07:18:16.589Z,13.80
2022-12-05T07:21:10.247Z,12.30
2022-12-05T07:23:20.984Z,15.10
2022-12-05T07:25:43.512Z,18.03
2022-12-05T07:28:06.207Z,13.73
2022-12-05T07:30:28.430Z,15.80
2022-12-05T07:32:50.619Z,13.47
2022-12-05T07:35:12.890Z,14.80
2022-12-05T07:37:35.287Z,15.20
2022-12-05T07:39:57.791Z,15.57
2022-12-05T07:42:20.212Z,16.40
2022-12-05T07:44:42.460Z,14.73
2022-12-05T07:47:04.731Z,15.73
2022-12-05T07:49:27.003Z,16.10
2022-12-05T07:51:49.214Z,13.53
2022-12-05T07:54:11.544Z,14.57
2022-12-05T07:56:33.867Z,16.00
2022-12-05T07:58:56.090Z,17.57
2022-12-05T08:01:19.605Z,15.97
2022-12-05T08:03:43.220Z,16.07
2022-12-05T08:06:06.510Z,14.37
2022-12-05T08:08:28.738Z,14.50
2022-12-05T08:10:50.907Z,15.33
2022-12-05T08:13:13.219Z,14.80
2022-12-05T08:15:36.729Z,17.87
2022-12-05T08:17:58.951Z,17.97
2022-12-05T08:20:21.228Z,16.67
2022-12-05T08:22:43.635Z,18.23
2022-12-05T08:25:06.002Z,15.60
2022-12-05T08:27:28.211Z,17.63
2022-12-05T08:29:50.427Z,21.77
2022-12-05T08:32:13.079Z,18.67
2022-12-05T08:34:36.749Z,21.70
2022-12-05T08:36:58.951Z,19.77
2022-12-05T08:39:21.352Z,17.37
2022-12-05T08:41:44.640Z,14.90
2022-12-05T08:44:08.770Z,15.73
2022-12-05T08:46:32.087Z,17.03
2022-12-05T08:48:54.394Z,16.80
2022-12-05T08:51:16.651Z,19.50
2022-12-05T08:53:44.053Z,18.37
2022-12-05T08:56:08.088Z,16.90
2022-12-05T08:58:30.887Z,23.43
2022-12-05T09:00:53.670Z,21.17
2022-12-05T09:03:16.007Z,20.60
2022-12-05T09:05:38.513Z,21.77
2022-12-05T09:08:00.824Z,15.87
2022-12-05T09:10:23.263Z,21.20
2022-12-05T09:12:45.494Z,17.57
2022-12-05T09:15:08.567Z,20.10
2022-12-05T09:17:30.938Z,15.70
2022-12-05T09:19:53.288Z,17.00
2022-12-05T09:22:15.519Z,18.77
2022-12-05T09:24:45.045Z,18.70
2022-12-05T09:27:07.268Z,16.13
2022-12-05T09:29:31.569Z,23.10
2022-12-05T09:31:55.672Z,19.43
2022-12-05T09:34:20.014Z,20.30
2022-12-05T09:36:42.746Z,19.23
2022-12-05T09:39:06.398Z,18.83
2022-12-05T09:41:50.224Z,16.03
2022-12-05T09:44:49.639Z,16.50
2022-12-05T09:47:24.372Z,17.27
2022-12-05T09:50:01.927Z,21.73
2022-12-05T09:52:35.989Z,17.00
2022-12-05T09:55:03.517Z,16.90
2022-12-05T09:57:33.865Z,17.30
2022-12-05T09:59:56.520Z,16.33
2022-12-05T10:02:18.733Z,17.27
2022-12-05T10:04:58.595Z,15.90
2022-12-05T10:07:34.016Z,19.37
2022-12-05T10:10:20.484Z,16.90
2022-12-05T10:12:52.279Z,15.13
2022-12-05T10:15:30.080Z,15.37
2022-12-05T10:17:57.504Z,17.77
2022-12-05T10:20:24.682Z,18.43
2022-12-05T10:22:48.627Z,18.83
2022-12-05T10:25:11.782Z,20.03
2022-12-05T10:27:40.334Z,16.53
2022-12-05T10:30:17.092Z,15.60
2022-12-05T10:32:48.193Z,17.93
2022-12-05T10:35:16.430Z,18.77
2022-12-05T10:37:38.840Z,18.00
2022-12-05T10:40:01.061Z,17.67
2022-12-05T10:42:29.106Z,13.57
2022-12-05T10:44:56.307Z,16.03
2022-12-05T10:47:18.914Z,14.90
2022-12-05T10:49:44.563Z,19.87
2022-12-05T10:52:07.414Z,13.40
2022-12-05T10:54:34.275Z,16.00
2022-12-05T10:57:21.590Z,14.00
2022-12-05T10:59:49.155Z,13.20
2022-12-05T11:02:25.044Z,20.77
2022-12-05T11:04:50.245Z,17.60
2022-12-05T11:07:38.112Z,15.90
2022-12-05T11:10:03.658Z,20.03
2022-12-05T11:12:36.949Z,12.77
2022-12-05T11:15:19.868Z,14.77
2022-12-05T11:17:42.264Z,19.10
2022-12-05T11:20:16.597Z,15.67
2022-12-05T11:22:39.057Z,13.07
2022-12-05T11:25:01.814Z,16.13
2022-12-05T11:27:29.155Z,17.70
2022-12-05T11:30:05.437Z,15.83
2022-12-05T11:32:30.315Z,15.07
2022-12-05T11:35:01.473Z,14.17
2022-12-05T11:37:26.126Z,18.03
2022-12-05T11:39:48.559Z,17.43
2022-12-05T11:42:37.370Z,15.33
2022-12-05T11:45:18.063Z,14.80
2022-12-05T11:48:08.083Z,13.80
2022-12-05T11:50:47.124Z,16.47
2022-12-05T11:53:28.506Z,15.73
2022-12-05T11:56:09.482Z,20.73
2022-12-05T11:58:32.414Z,17.17
2022-12-05T12:04:06.844Z,14.77
2022-12-05T12:06:29.928Z,14.87
2022-12-05T12:09:02.645Z,18.37
2022-12-05T12:11:30.117Z,15.93
2022-12-05T12:14:03.599Z,16.57
2022-12-05T12:16:36.059Z,17.23
2022-12-05T12:19:01.288Z,13.30
2022-12-05T12:21:26.707Z,12.60
2022-12-05T12:24:01.036Z,13.93
2022-12-05T12:26:33.599Z,14.43
2022-12-05T12:29:14.675Z,10.03
2022-12-05T12:31:56.160Z,11.60
2022-12-05T12:34:40.659Z,11.23
2022-12-05T12:37:02.997Z,12.00
2022-12-05T12:39:30.515Z,9.87
2022-12-05T12:42:16.048Z,10.50
2022-12-05T12:44:47.579Z,11.97
2022-12-05T12:47:20.475Z,11.67
2022-12-05T12:49:56.293Z,10.17
2022-12-05T12:52:22.196Z,10.23
2022-12-05T12:55:04.848Z,10.97
2022-12-05T12:57:36.617Z,9.90
2022-12-05T13:00:23.730Z,9.17
2022-12-05T13:03:12.672Z,8.60
2022-12-05T13:05:43.071Z,11.13
2022-12-05T13:08:05.649Z,9.67
2022-12-05T13:10:48.356Z,9.83
2022-12-05T13:13:15.482Z,8.87
2022-12-05T13:15:45.206Z,11.20
2022-12-05T13:18:09.710Z,11.50
2022-12-05T13:20:35.091Z,10.47
2022-12-05T13:22:57.599Z,9.53
2022-12-05T13:25:22.417Z,7.20
2022-12-05T13:27:58.772Z,7.63
2022-12-05T13:30:21.275Z,10.57
2022-12-05T13:32:44.664Z,9.87
2022-12-05T13:35:11.913Z,8.53
2022-12-05T13:37:53.591Z,8.97
2022-12-05T13:40:47.509Z,7.73
2022-12-05T13:43:11.566Z,7.10
2022-12-05T13:45:35.153Z,6.47
2022-12-05T13:48:00.590Z,7.00
2022-12-05T13:50:46.070Z,8.70
2022-12-05T13:53:29.993Z,5.17
2022-12-05T13:56:15.699Z,6.83
2022-12-05T13:58:42.702Z,4.80
2022-12-05T14:01:25.278Z,5.17
2022-12-05T14:03:47.581Z,7.83
2022-12-05T14:06:09.908Z,5.30
2022-12-05T14:08:37.230Z,5.07
2022-12-05T14:11:03.930Z,4.03
2022-12-05T14:13:35.526Z,5.47
2022-12-05T14:16:17.004Z,3.80
2022-12-05T14:18:55.628Z,4.57
2022-12-05T14:21:25.715Z,4.53
2022-12-05T14:24:06.968Z,4.00
2022-12-05T14:26:52.738Z,4.50
2022-12-05T14:29:18.587Z,5.00
2022-12-05T14:32:04.611Z,4.40
2022-12-05T14:34:28.524Z,8.70
2022-12-05T14:36:58.668Z,6.30
2022-12-05T14:39:22.260Z,5.50
2022-12-05T14:41:45.652Z,3.93
2022-12-05T14:44:17.205Z,5.60
2022-12-05T14:46:45.161Z,5.27
2022-12-05T14:49:27.359Z,4.70
2022-12-05T14:54:38.580Z,4.60
2022-12-05T14:57:07.865Z,4.83
2022-12-05T14:59:58.942Z,4.77
2022-12-05T15:02:36.340Z,4.53
2022-12-05T15:05:13.602Z,5.77
2022-12-05T15:07:37.477Z,5.23
2022-12-05T15:10:06.143Z,6.57
2022-12-05T15:12:37.792Z,5.23
2022-12-05T15:15:03.986Z,5.93
2022-12-05T15:17:28.191Z,6.00
2022-12-05T15:19:58.202Z,7.17
2022-12-05T15:22:22.581Z,7.80
2022-12-05T15:24:46.952Z,7.03
2022-12-05T15:27:11.747Z,7.23
2022-12-05T15:29:34.132Z,7.20
2022-12-05T15:32:03.806Z,8.13
2022-12-05T15:34:32.542Z,7.27
2022-12-05T15:37:18.582Z,6.53
2022-12-05T15:39:52.698Z,10.33
2022-12-05T15:42:16.314Z,9.67
2022-12-05T15:44:38.782Z,12.00
2022-12-05T15:47:01.190Z,10.53
2022-12-05T15:49:27.416Z,14.17
2022-12-05T15:51:51.138Z,10.37
2022-12-05T15:54:18.404Z,7.37
2022-12-05T15:56:46.977Z,8.37
2022-12-05T15:59:09.332Z,8.47
2022-12-05T16:01:34.841Z,6.47
2022-12-05T16:04:05.455Z,5.93
2022-12-05T16:06:38.503Z,5.83
2022-12-05T16:09:02.001Z,9.60
2022-12-05T16:11:24.386Z,6.53
2022-12-05T16:13:55.879Z,6.30
2022-12-05T16:16:23.591Z,7.43
2022-12-05T16:18:56.156Z,8.03
2022-12-05T16:21:39.378Z,7.03
2022-12-05T16:24:03.828Z,6.50
2022-12-05T16:26:26.375Z,6.40
2022-12-05T16:29:02.145Z,6.93
2022-12-05T16:31:24.821Z,7.53
2022-12-05T16:33:47.089Z,8.50
2022-12-05T16:36:13.611Z,7.20
2022-12-05T16:38:36.799Z,8.53
2022-12-05T16:41:00.559Z,7.07
2022-12-05T16:43:42.041Z,8.63
2022-12-05T16:46:16.381Z,8.07
2022-12-05T16:48:39.356Z,7.37
2022-12-05T16:51:28.691Z,7.87
2022-12-05T16:53:59.107Z,9.47
2022-12-05T16:56:23.437Z,8.80
2022-12-05T16:58:46.818Z,9.80
2022-12-05T17:01:15.590Z,13.63
2022-12-05T17:03:37.966Z,10.43
2022-12-05T17:06:00.732Z,10.90
2022-12-05T17:08:23.219Z,11.10
2022-12-05T17:10:45.691Z,10.63
2022-12-05T17:13:08.022Z,10.23
2022-12-05T17:15:32.787Z,10.93
2022-12-05T17:17:55.881Z,13.90
2022-12-05T17:20:24.283Z,14.27
2022-12-05T17:22:49.879Z,14.57
2022-12-05T17:25:25.585Z,16.43
2022-12-05T17:27:47.891Z,16.57
2022-12-05T17:30:10.465Z,17.37
2022-12-05T17:32:32.833Z,16.53
2022-12-05T17:35:06.786Z,15.47
2022-12-05T17:37:29.692Z,15.20
2022-12-05T17:39:52.384Z,13.63
2022-12-05T17:42:14.795Z,16.13
2022-12-05T17:44:37.707Z,15.83
2022-12-05T17:47:06.039Z,16.33
2022-12-05T17:49:30.402Z,17.40
2022-12-05T17:54:46.291Z,17.03
2022-12-05T17:57:11.045Z,14.10
2022-12-05T17:59:33.628Z,13.93
2022-12-05T18:01:56.171Z,15.97
2022-12-05T18:04:26.358Z,15.70
2022-12-05T18:06:48.764Z,17.87
2022-12-05T18:09:11.033Z,16.13
2022-12-05T18:11:33.600Z,13.50
2022-12-05T18:13:56.546Z,19.63
2022-12-05T18:16:21.661Z,23.17
2022-12-05T18:18:43.967Z,17.57
2022-12-05T18:21:06.421Z,17.27
2022-12-05T18:23:28.965Z,16.90
2022-12-05T18:25:58.163Z,16.53
2022-12-05T18:28:22.921Z,17.00
2022-12-05T18:30:45.186Z,13.53
2022-12-05T18:33:16.952Z,13.57
2022-12-05T18:35:51.866Z,16.00
2022-12-05T18:38:14.842Z,17.03
2022-12-05T18:40:37.364Z,16.87
2022-12-05T18:42:59.990Z,17.17
2022-12-05T18:45:28.400Z,17.40
2022-12-05T18:48:16.333Z,14.67
2022-12-05T18:50:45.729Z,13.10
2022-12-05T18:53:08.081Z,13.77
2022-12-05T18:58:24.421Z,13.77
2022-12-05T19:00:50.713Z,13.70
2022-12-05T19:03:18.776Z,12.43
2022-12-05T19:05:42.833Z,12.63
2022-12-05T19:08:05.559Z,13.23
2022-12-05T19:10:28.020Z,13.23
2022-12-05T19:12:50.585Z,12.67
2022-12-05T19:15:13.103Z,14.07
2022-12-05T19:17:35.971Z,13.57
2022-12-05T19:19:59.120Z,13.83
2022-12-05T19:22:23.698Z,12.00
2022-12-05T19:24:46.352Z,12.13
2022-12-05T19:27:08.688Z,11.90
2022-12-05T19:29:33.266Z,13.47
2022-12-05T19:31:55.593Z,13.13
2022-12-05T19:34:17.941Z,11.53
2022-12-05T19:36:41.716Z,14.43
2022-12-05T19:39:27.920Z,11.80
2022-12-05T19:41:50.410Z,11.63
2022-12-05T19:44:12.887Z,12.87
2022-12-05T19:46:39.140Z,11.37
2022-12-05T19:51:43.226Z,11.37
2022-12-05T19:54:10.075Z,10.97
2022-12-05T19:56:33.329Z,9.97
2022-12-05T19:58:57.633Z,10.83
2022-12-05T20:01:26.184Z,10.23
2022-12-05T20:03:52.953Z,9.27
2022-12-05T20:06:21.842Z,10.03
2022-12-05T20:08:44.301Z,10.37
2022-12-05T20:11:17.231Z,11.47
2022-12-05T20:13:48.120Z,8.73
2022-12-05T20:16:36.222Z,9.43
2022-12-05T20:18:59.424Z,8.67
2022-12-05T20:21:24.910Z,10.10
2022-12-05T20:23:47.350Z,9.37
2022-12-05T20:26:14.399Z,10.47
2022-12-05T20:28:36.729Z,10.77
2022-12-05T20:31:09.679Z,10.47
2022-12-05T20:33:32.759Z,12.60
2022-12-05T20:35:55.632Z,10.70
2022-12-05T20:38:20.413Z,10.20
2022-12-05T20:40:43.155Z,10.53
2022-12-05T20:43:05.472Z,10.23
2022-12-05T20:45:28.852Z,9.70
2022-12-05T20:47:51.704Z,8.97
2022-12-05T20:50:15.871Z,9.50
2022-12-05T20:52:46.873Z,9.23
2022-12-05T20:55:12.019Z,11.20
2022-12-05T20:57:43.131Z,10.57
2022-12-05T21:00:06.623Z,10.77
2022-12-05T21:02:30.934Z,12.00
2022-12-05T21:04:53.951Z,9.47
2022-12-05T21:07:22.229Z,12.57
2022-12-05T21:09:47.472Z,9.00
2022-12-05T21:12:09.920Z,12.27
2022-12-05T21:14:35.813Z,11.23
2022-12-05T21:16:58.428Z,10.43
2022-12-05T21:19:22.227Z,12.37
2022-12-05T21:21:47.407Z,9.40
2022-12-05T21:24:12.513Z,9.43
2022-12-05T21:26:37.284Z,11.10
2022-12-05T21:29:00.442Z,10.67
2022-12-05T21:31:33.857Z,9.47
2022-12-05T21:33:57.525Z,10.17
2022-12-05T21:36:19.957Z,11.70
2022-12-05T21:38:44.030Z,9.90
2022-12-05T21:41:09.451Z,9.43
2022-12-05T21:43:34.040Z,9.80
2022-12-05T21:45:56.859Z,9.07
2022-12-05T21:48:20.040Z,9.40
2022-12-05T21:50:48.930Z,9.17
2022-12-05T21:53:17.607Z,9.97
2022-12-05T21:55:40.259Z,11.27
2022-12-05T21:58:05.564Z,10.87
2022-12-05T22:00:27.878Z,10.60
2022-12-05T22:02:50.577Z,9.40
2022-12-05T22:05:13.478Z,9.57
2022-12-05T22:07:38.302Z,11.30
2022-12-05T22:10:02.681Z,9.43
2022-12-05T22:12:25.421Z,10.87
2022-12-05T22:14:55.130Z,10.07
2022-12-05T22:17:24.541Z,10.87
2022-12-05T22:19:49.980Z,13.13
2022-12-05T22:22:15.242Z,9.53
2022-12-05T22:24:46.198Z,10.30
2022-12-05T22:27:08.922Z,13.10
2022-12-05T22:29:37.404Z,10.13
2022-12-05T22:32:00.868Z,9.63
2022-12-05T22:34:26.846Z,9.37
2022-12-05T22:36:52.830Z,9.80
2022-12-05T22:39:16.477Z,9.93
2022-12-05T22:41:38.901Z,12.23
2022-12-05T22:44:01.331Z,9.93
2022-12-05T22:46:24.086Z,10.07
2022-12-05T22:48:47.747Z,11.17
2022-12-05T22:51:10.398Z,8.87
2022-12-05T22:53:32.767Z,11.83
2022-12-05T22:55:55.303Z,11.30
2022-12-05T22:58:17.992Z,10.03
2022-12-05T23:00:40.388Z,12.23
2022-12-05T23:03:02.689Z,10.53
2022-12-05T23:05:25.213Z,10.63
2022-12-05T23:07:47.491Z,12.20
2022-12-05T23:10:09.827Z,9.47
2022-12-05T23:12:32.095Z,9.10
2022-12-05T23:14:54.262Z,11.10
2022-12-05T23:17:16.520Z,11.47
2022-12-05T23:19:38.746Z,11.07
2022-12-05T23:22:02.356Z,11.43
2022-12-05T23:24:24.609Z,9.73
2022-12-05T23:26:46.922Z,10.40
2022-12-05T23:29:09.407Z,9.23
2022-12-05T23:31:31.816Z,11.60
2022-12-05T23:33:57.236Z,11.83
2022-12-05T23:36:23.675Z,10.60
2022-12-05T23:38:45.971Z,9.67
2022-12-05T23:41:09.716Z,8.93
2022-12-05T23:43:32.744Z,10.17
2022-12-05T23:45:55.060Z,10.70
2022-12-05T23:48:19.846Z,10.80
2022-12-05T23:50:42.052Z,10.97
2022-12-05T23:53:04.287Z,12.70
2022-12-05T23:55:26.495Z,10.83
2022-12-05T23:57:48.726Z,12.23
